sensor_id;sensor_type;location;lat;lon;timestamp;temperature;humidity
30399;DHT22;17195;50.838;7.214;2022-08-21T00:01:24;13.80;99.90
30399;DHT22;17195;50.838;7.214;2022-08-21T00:03:51;13.80;99.90
30399;DHT22;17195;50.838;7.214;2022-08-21T00:06:16;13.80;99.90
30399;DHT22;17195;50.838;7.214;2022-08-21T00:08:42;13.80;99.90
30399;DHT22;17195;50.838;7.214;2022-08-21T00:11:08;13.70;99.90
30399;DHT22;17195;50.838;7.214;2022-08-21T00:13:35;13.70;99.90
30399;DHT22;17195;50.838;7.214;2022-08-21T00:16:02;13.60;99.90
30399;DHT22;17195;50.838;7.214;2022-08-21T00:18:28;13.60;99.90
30399;DHT22;17195;50.838;7.214;2022-08-21T00:20:53;13.70;99.90
30399;DHT22;17195;50.838;7.214;2022-08-21T00:23:19;13.60;99.90
30399;DHT22;17195;50.838;7.214;2022-08-21T00:25:45;13.60;99.90
30399;DHT22;17195;50.838;7.214;2022-08-21T00:28:11;13.60;99.90
30399;DHT22;17195;50.838;7.214;2022-08-21T00:30:38;13.50;99.90
30399;DHT22;17195;50.838;7.214;2022-08-21T00:33:05;13.50;99.90
30399;DHT22;17195;50.838;7.214;2022-08-21T00:35:34;13.40;99.90
30399;DHT22;17195;50.838;7.214;2022-08-21T00:38:00;13.50;99.90
30399;DHT22;17195;50.838;7.214;2022-08-21T00:40:30;13.40;99.90
30399;DHT22;17195;50.838;7.214;2022-08-21T00:42:56;13.40;99.90
30399;DHT22;17195;50.838;7.214;2022-08-21T00:45:23;13.40;99.90
30399;DHT22;17195;50.838;7.214;2022-08-21T00:47:50;13.30;99.90
30399;DHT22;17195;50.838;7.214;2022-08-21T00:50:15;13.40;99.90
30399;DHT22;17195;50.838;7.214;2022-08-21T00:52:41;13.30;99.90
30399;DHT22;17195;50.838;7.214;2022-08-21T00:55:09;13.30;99.90
30399;DHT22;17195;50.838;7.214;2022-08-21T00:57:44;13.30;99.90
30399;DHT22;17195;50.838;7.214;2022-08-21T01:00:15;13.20;99.90
30399;DHT22;17195;50.838;7.214;2022-08-21T01:02:42;13.20;99.90
30399;DHT22;17195;50.838;7.214;2022-08-21T01:05:08;13.20;99.90
30399;DHT22;17195;50.838;7.214;2022-08-21T01:07:35;13.20;99.90
30399;DHT22;17195;50.838;7.214;2022-08-21T01:10:00;13.10;99.90
30399;DHT22;17195;50.838;7.214;2022-08-21T01:12:26;13.10;99.90
30399;DHT22;17195;50.838;7.214;2022-08-21T01:14:52;13.10;99.90
30399;DHT22;17195;50.838;7.214;2022-08-21T01:17:19;13.10;99.90
30399;DHT22;17195;50.838;7.214;2022-08-21T01:19:46;13.10;99.90
30399;DHT22;17195;50.838;7.214;2022-08-21T01:22:12;13.00;99.90
30399;DHT22;17195;50.838;7.214;2022-08-21T01:24:38;13.10;99.90
30399;DHT22;17195;50.838;7.214;2022-08-21T01:27:04;13.00;99.90
30399;DHT22;17195;50.838;7.214;2022-08-21T01:29:47;13.00;99.90
30399;DHT22;17195;50.838;7.214;2022-08-21T01:32:17;13.00;99.90
30399;DHT22;17195;50.838;7.214;2022-08-21T01:34:45;13.00;99.90
30399;DHT22;17195;50.838;7.214;2022-08-21T01:37:12;12.90;99.90
30399;DHT22;17195;50.838;7.214;2022-08-21T01:39:38;12.90;99.90
30399;DHT22;17195;50.838;7.214;2022-08-21T01:42:04;12.90;99.90
30399;DHT22;17195;50.838;7.214;2022-08-21T01:44:30;12.80;99.90
30399;DHT22;17195;50.838;7.214;2022-08-21T01:46:59;12.80;99.90
30399;DHT22;17195;50.838;7.214;2022-08-21T01:49:24;12.80;99.90
30399;DHT22;17195;50.838;7.214;2022-08-21T01:51:50;12.80;99.90
30399;DHT22;17195;50.838;7.214;2022-08-21T01:54:16;12.80;99.90
30399;DHT22;17195;50.838;7.214;2022-08-21T01:56:45;12.70;99.90
30399;DHT22;17195;50.838;7.214;2022-08-21T01:59:11;12.70;99.90
30399;DHT22;17195;50.838;7.214;2022-08-21T02:01:37;12.70;99.90
30399;DHT22;17195;50.838;7.214;2022-08-21T02:04:05;12.80;99.90
30399;DHT22;17195;50.838;7.214;2022-08-21T02:06:31;12.80;99.90
30399;DHT22;17195;50.838;7.214;2022-08-21T02:08:56;12.70;99.90
30399;DHT22;17195;50.838;7.214;2022-08-21T02:11:22;12.70;99.90
30399;DHT22;17195;50.838;7.214;2022-08-21T02:13:47;12.70;99.90
30399;DHT22;17195;50.838;7.214;2022-08-21T02:16:13;12.70;99.90
30399;DHT22;17195;50.838;7.214;2022-08-21T02:18:39;12.70;99.90
30399;DHT22;17195;50.838;7.214;2022-08-21T02:21:05;12.60;99.90
30399;DHT22;17195;50.838;7.214;2022-08-21T02:23:31;12.60;99.90
30399;DHT22;17195;50.838;7.214;2022-08-21T02:25:59;12.60;99.90
30399;DHT22;17195;50.838;7.214;2022-08-21T02:28:25;12.60;99.90
30399;DHT22;17195;50.838;7.214;2022-08-21T02:30:51;12.50;99.90
30399;DHT22;17195;50.838;7.214;2022-08-21T02:33:18;12.50;99.90
30399;DHT22;17195;50.838;7.214;2022-08-21T02:35:46;12.50;99.90
30399;DHT22;17195;50.838;7.214;2022-08-21T02:38:14;12.50;99.90
30399;DHT22;17195;50.838;7.214;2022-08-21T02:40:42;12.50;99.90
30399;DHT22;17195;50.838;7.214;2022-08-21T02:43:08;12.50;99.90
30399;DHT22;17195;50.838;7.214;2022-08-21T02:45:36;12.50;99.90
30399;DHT22;17195;50.838;7.214;2022-08-21T02:48:05;12.50;99.90
30399;DHT22;17195;50.838;7.214;2022-08-21T02:51:15;12.50;99.90
30399;DHT22;17195;50.838;7.214;2022-08-21T02:53:21;12.50;99.90
30399;DHT22;17195;50.838;7.214;2022-08-21T02:55:48;12.50;99.90
30399;DHT22;17195;50.838;7.214;2022-08-21T02:58:16;12.50;99.90
30399;DHT22;17195;50.838;7.214;2022-08-21T03:00:43;12.40;99.90
30399;DHT22;17195;50.838;7.214;2022-08-21T03:03:10;12.40;99.90
30399;DHT22;17195;50.838;7.214;2022-08-21T03:05:36;12.30;99.90
30399;DHT22;17195;50.838;7.214;2022-08-21T03:08:05;12.30;99.90
30399;DHT22;17195;50.838;7.214;2022-08-21T03:10:35;12.30;99.90
30399;DHT22;17195;50.838;7.214;2022-08-21T03:13:00;12.20;99.90
30399;DHT22;17195;50.838;7.214;2022-08-21T03:15:29;12.20;99.90
30399;DHT22;17195;50.838;7.214;2022-08-21T03:17:55;12.20;99.90
30399;DHT22;17195;50.838;7.214;2022-08-21T03:20:26;12.20;99.90
30399;DHT22;17195;50.838;7.214;2022-08-21T03:22:52;12.10;99.90
30399;DHT22;17195;50.838;7.214;2022-08-21T03:25:19;12.20;99.90
30399;DHT22;17195;50.838;7.214;2022-08-21T03:27:45;12.20;99.90
30399;DHT22;17195;50.838;7.214;2022-08-21T03:30:12;12.20;99.90
30399;DHT22;17195;50.838;7.214;2022-08-21T03:32:38;12.20;99.90
30399;DHT22;17195;50.838;7.214;2022-08-21T03:35:04;12.20;99.90
30399;DHT22;17195;50.838;7.214;2022-08-21T03:37:31;12.20;99.90
30399;DHT22;17195;50.838;7.214;2022-08-21T03:39:57;12.10;99.90
30399;DHT22;17195;50.838;7.214;2022-08-21T03:42:23;12.10;99.90
30399;DHT22;17195;50.838;7.214;2022-08-21T03:44:48;12.10;99.90
30399;DHT22;17195;50.838;7.214;2022-08-21T03:47:14;12.10;99.90
30399;DHT22;17195;50.838;7.214;2022-08-21T03:49:40;12.10;99.90
30399;DHT22;17195;50.838;7.214;2022-08-21T03:52:06;12.10;99.90
30399;DHT22;17195;50.838;7.214;2022-08-21T03:54:32;12.00;99.90
30399;DHT22;17195;50.838;7.214;2022-08-21T03:56:57;12.00;99.90
30399;DHT22;17195;50.838;7.214;2022-08-21T03:59:23;12.00;99.90
30399;DHT22;17195;50.838;7.214;2022-08-21T04:01:57;12.00;99.90
30399;DHT22;17195;50.838;7.214;2022-08-21T04:04:24;11.90;99.90
30399;DHT22;17195;50.838;7.214;2022-08-21T04:06:50;11.90;99.90
30399;DHT22;17195;50.838;7.214;2022-08-21T04:09:17;11.90;99.90
30399;DHT22;17195;50.838;7.214;2022-08-21T04:11:42;11.90;99.90
30399;DHT22;17195;50.838;7.214;2022-08-21T04:14:08;11.80;99.90
30399;DHT22;17195;50.838;7.214;2022-08-21T04:16:34;11.80;99.90
30399;DHT22;17195;50.838;7.214;2022-08-21T04:19:00;11.80;99.90
30399;DHT22;17195;50.838;7.214;2022-08-21T04:21:26;11.80;99.90
30399;DHT22;17195;50.838;7.214;2022-08-21T04:23:54;11.80;99.90
30399;DHT22;17195;50.838;7.214;2022-08-21T04:26:19;11.80;99.90
30399;DHT22;17195;50.838;7.214;2022-08-21T04:28:45;11.80;99.90
30399;DHT22;17195;50.838;7.214;2022-08-21T04:31:10;11.80;99.90
30399;DHT22;17195;50.838;7.214;2022-08-21T04:33:36;11.80;99.90
30399;DHT22;17195;50.838;7.214;2022-08-21T04:36:02;11.80;99.90
30399;DHT22;17195;50.838;7.214;2022-08-21T04:38:28;11.80;99.90
30399;DHT22;17195;50.838;7.214;2022-08-21T04:40:53;11.80;99.90
30399;DHT22;17195;50.838;7.214;2022-08-21T04:43:20;11.80;99.90
30399;DHT22;17195;50.838;7.214;2022-08-21T04:45:49;11.80;99.90
30399;DHT22;17195;50.838;7.214;2022-08-21T04:48:17;11.80;99.90
30399;DHT22;17195;50.838;7.214;2022-08-21T04:50:45;11.80;99.90
30399;DHT22;17195;50.838;7.214;2022-08-21T04:53:29;11.80;99.90
30399;DHT22;17195;50.838;7.214;2022-08-21T04:55:58;11.80;99.90
30399;DHT22;17195;50.838;7.214;2022-08-21T04:58:27;11.90;99.90
30399;DHT22;17195;50.838;7.214;2022-08-21T05:00:54;11.90;99.90
30399;DHT22;17195;50.838;7.214;2022-08-21T05:03:21;11.90;99.90
30399;DHT22;17195;50.838;7.214;2022-08-21T05:05:47;11.90;99.90
30399;DHT22;17195;50.838;7.214;2022-08-21T05:08:16;11.90;99.90
30399;DHT22;17195;50.838;7.214;2022-08-21T05:10:42;12.00;99.90
30399;DHT22;17195;50.838;7.214;2022-08-21T05:13:11;12.10;99.90
30399;DHT22;17195;50.838;7.214;2022-08-21T05:15:38;12.10;99.90
30399;DHT22;17195;50.838;7.214;2022-08-21T05:18:03;12.20;99.90
30399;DHT22;17195;50.838;7.214;2022-08-21T05:20:29;12.20;99.90
30399;DHT22;17195;50.838;7.214;2022-08-21T05:22:55;12.30;99.90
30399;DHT22;17195;50.838;7.214;2022-08-21T05:25:21;12.40;99.90
30399;DHT22;17195;50.838;7.214;2022-08-21T05:27:46;12.50;99.90
30399;DHT22;17195;50.838;7.214;2022-08-21T05:30:12;12.60;99.90
30399;DHT22;17195;50.838;7.214;2022-08-21T05:32:38;12.70;99.90
30399;DHT22;17195;50.838;7.214;2022-08-21T05:35:05;12.80;99.90
30399;DHT22;17195;50.838;7.214;2022-08-21T05:37:31;12.90;99.90
30399;DHT22;17195;50.838;7.214;2022-08-21T05:39:58;13.00;99.90
30399;DHT22;17195;50.838;7.214;2022-08-21T05:42:24;13.10;99.90
30399;DHT22;17195;50.838;7.214;2022-08-21T05:44:49;13.10;99.90
30399;DHT22;17195;50.838;7.214;2022-08-21T05:47:15;13.20;99.90
30399;DHT22;17195;50.838;7.214;2022-08-21T05:49:40;13.20;99.90
30399;DHT22;17195;50.838;7.214;2022-08-21T05:52:06;13.40;99.90
30399;DHT22;17195;50.838;7.214;2022-08-21T05:54:31;13.50;99.90
30399;DHT22;17195;50.838;7.214;2022-08-21T05:56:57;13.60;99.90
30399;DHT22;17195;50.838;7.214;2022-08-21T05:59:23;13.70;99.90
30399;DHT22;17195;50.838;7.214;2022-08-21T06:01:49;13.80;99.90
30399;DHT22;17195;50.838;7.214;2022-08-21T06:04:15;13.90;99.90
30399;DHT22;17195;50.838;7.214;2022-08-21T06:06:41;14.00;99.90
30399;DHT22;17195;50.838;7.214;2022-08-21T06:09:07;14.10;99.90
30399;DHT22;17195;50.838;7.214;2022-08-21T06:11:32;14.20;99.90
30399;DHT22;17195;50.838;7.214;2022-08-21T06:13:58;14.30;99.90
30399;DHT22;17195;50.838;7.214;2022-08-21T06:16:25;14.40;99.90
30399;DHT22;17195;50.838;7.214;2022-08-21T06:18:51;14.50;99.90
30399;DHT22;17195;50.838;7.214;2022-08-21T06:21:17;14.60;99.90
30399;DHT22;17195;50.838;7.214;2022-08-21T06:23:43;14.70;99.90
30399;DHT22;17195;50.838;7.214;2022-08-21T06:26:10;14.80;99.90
30399;DHT22;17195;50.838;7.214;2022-08-21T06:28:36;14.90;99.90
30399;DHT22;17195;50.838;7.214;2022-08-21T06:31:14;15.00;99.90
30399;DHT22;17195;50.838;7.214;2022-08-21T06:33:40;15.20;99.90
30399;DHT22;17195;50.838;7.214;2022-08-21T06:36:06;15.30;99.90
30399;DHT22;17195;50.838;7.214;2022-08-21T06:38:32;15.40;99.90
30399;DHT22;17195;50.838;7.214;2022-08-21T06:40:57;15.50;99.90
30399;DHT22;17195;50.838;7.214;2022-08-21T06:43:23;15.60;99.90
30399;DHT22;17195;50.838;7.214;2022-08-21T06:45:48;15.80;99.90
30399;DHT22;17195;50.838;7.214;2022-08-21T06:48:14;15.90;99.90
30399;DHT22;17195;50.838;7.214;2022-08-21T06:50:40;16.00;99.90
30399;DHT22;17195;50.838;7.214;2022-08-21T06:53:12;16.10;99.90
30399;DHT22;17195;50.838;7.214;2022-08-21T06:55:39;16.30;99.90
30399;DHT22;17195;50.838;7.214;2022-08-21T06:58:05;16.40;99.90
30399;DHT22;17195;50.838;7.214;2022-08-21T07:00:31;16.50;99.90
30399;DHT22;17195;50.838;7.214;2022-08-21T07:02:57;16.60;99.90
30399;DHT22;17195;50.838;7.214;2022-08-21T07:05:26;16.70;99.90
30399;DHT22;17195;50.838;7.214;2022-08-21T07:07:52;16.90;99.90
30399;DHT22;17195;50.838;7.214;2022-08-21T07:10:18;17.10;99.90
30399;DHT22;17195;50.838;7.214;2022-08-21T07:12:43;17.30;99.90
30399;DHT22;17195;50.838;7.214;2022-08-21T07:15:10;17.40;99.90
30399;DHT22;17195;50.838;7.214;2022-08-21T07:17:35;17.40;99.90
30399;DHT22;17195;50.838;7.214;2022-08-21T07:20:01;17.50;99.90
30399;DHT22;17195;50.838;7.214;2022-08-21T07:22:27;17.60;99.90
30399;DHT22;17195;50.838;7.214;2022-08-21T07:24:54;17.80;99.90
30399;DHT22;17195;50.838;7.214;2022-08-21T07:27:19;17.90;99.90
30399;DHT22;17195;50.838;7.214;2022-08-21T07:29:45;17.90;99.90
30399;DHT22;17195;50.838;7.214;2022-08-21T07:32:10;18.10;99.90
30399;DHT22;17195;50.838;7.214;2022-08-21T07:34:36;18.20;99.90
30399;DHT22;17195;50.838;7.214;2022-08-21T07:37:02;18.30;99.90
30399;DHT22;17195;50.838;7.214;2022-08-21T07:39:27;18.40;99.90
30399;DHT22;17195;50.838;7.214;2022-08-21T07:41:53;18.50;99.90
30399;DHT22;17195;50.838;7.214;2022-08-21T07:44:18;18.60;99.90
30399;DHT22;17195;50.838;7.214;2022-08-21T07:46:44;18.60;99.90
30399;DHT22;17195;50.838;7.214;2022-08-21T07:49:09;18.70;99.90
30399;DHT22;17195;50.838;7.214;2022-08-21T07:51:35;18.80;99.90
30399;DHT22;17195;50.838;7.214;2022-08-21T07:54:01;18.80;99.90
30399;DHT22;17195;50.838;7.214;2022-08-21T07:56:28;18.90;99.90
30399;DHT22;17195;50.838;7.214;2022-08-21T07:58:55;18.80;99.90
30399;DHT22;17195;50.838;7.214;2022-08-21T08:01:23;18.90;99.90
30399;DHT22;17195;50.838;7.214;2022-08-21T08:03:49;19.00;99.90
30399;DHT22;17195;50.838;7.214;2022-08-21T08:06:14;19.10;99.90
30399;DHT22;17195;50.838;7.214;2022-08-21T08:08:42;19.30;99.90
30399;DHT22;17195;50.838;7.214;2022-08-21T08:11:09;19.50;99.90
30399;DHT22;17195;50.838;7.214;2022-08-21T08:13:43;19.60;99.90
30399;DHT22;17195;50.838;7.214;2022-08-21T08:16:09;19.60;99.90
30399;DHT22;17195;50.838;7.214;2022-08-21T08:18:35;19.70;99.90
30399;DHT22;17195;50.838;7.214;2022-08-21T08:21:01;19.80;99.90
30399;DHT22;17195;50.838;7.214;2022-08-21T08:23:27;19.80;99.90
30399;DHT22;17195;50.838;7.214;2022-08-21T08:25:52;19.90;99.90
30399;DHT22;17195;50.838;7.214;2022-08-21T08:28:18;20.00;99.90
30399;DHT22;17195;50.838;7.214;2022-08-21T08:30:47;20.20;99.90
30399;DHT22;17195;50.838;7.214;2022-08-21T08:33:13;20.30;99.90
30399;DHT22;17195;50.838;7.214;2022-08-21T08:35:46;20.40;99.90
30399;DHT22;17195;50.838;7.214;2022-08-21T08:38:12;20.50;99.90
30399;DHT22;17195;50.838;7.214;2022-08-21T08:40:47;20.60;99.90
30399;DHT22;17195;50.838;7.214;2022-08-21T08:43:17;20.80;99.90
30399;DHT22;17195;50.838;7.214;2022-08-21T08:45:46;20.80;99.90
30399;DHT22;17195;50.838;7.214;2022-08-21T08:48:21;21.00;99.90
30399;DHT22;17195;50.838;7.214;2022-08-21T08:50:56;21.00;99.90
30399;DHT22;17195;50.838;7.214;2022-08-21T08:53:25;21.10;99.90
30399;DHT22;17195;50.838;7.214;2022-08-21T08:55:53;21.20;99.90
30399;DHT22;17195;50.838;7.214;2022-08-21T08:58:27;21.30;99.90
30399;DHT22;17195;50.838;7.214;2022-08-21T09:00:54;21.40;99.90
30399;DHT22;17195;50.838;7.214;2022-08-21T09:03:22;21.50;99.90
30399;DHT22;17195;50.838;7.214;2022-08-21T09:06:04;21.60;99.90
30399;DHT22;17195;50.838;7.214;2022-08-21T09:08:44;21.80;99.90
30399;DHT22;17195;50.838;7.214;2022-08-21T09:11:37;21.90;99.90
30399;DHT22;17195;50.838;7.214;2022-08-21T09:14:50;22.00;99.90
30399;DHT22;17195;50.838;7.214;2022-08-21T09:20:38;22.30;99.90
30399;DHT22;17195;50.838;7.214;2022-08-21T09:26:12;22.10;99.90
30399;DHT22;17195;50.838;7.214;2022-08-21T09:28:38;22.20;99.90
30399;DHT22;17195;50.838;7.214;2022-08-21T09:31:41;22.30;99.90
30399;DHT22;17195;50.838;7.214;2022-08-21T09:36:39;22.50;99.90
30399;DHT22;17195;50.838;7.214;2022-08-21T09:39:05;22.60;99.90
30399;DHT22;17195;50.838;7.214;2022-08-21T09:41:34;22.70;99.90
30399;DHT22;17195;50.838;7.214;2022-08-21T09:44:01;22.60;99.90
30399;DHT22;17195;50.838;7.214;2022-08-21T09:46:27;22.80;99.90
30399;DHT22;17195;50.838;7.214;2022-08-21T09:48:59;22.90;99.90
30399;DHT22;17195;50.838;7.214;2022-08-21T09:51:28;23.00;99.90
30399;DHT22;17195;50.838;7.214;2022-08-21T09:56:58;23.10;99.90
30399;DHT22;17195;50.838;7.214;2022-08-21T09:59:44;23.20;99.90
30399;DHT22;17195;50.838;7.214;2022-08-21T10:02:26;23.40;99.90
30399;DHT22;17195;50.838;7.214;2022-08-21T10:04:54;23.60;99.90
30399;DHT22;17195;50.838;7.214;2022-08-21T10:07:22;23.70;99.10
30399;DHT22;17195;50.838;7.214;2022-08-21T10:10:22;23.70;99.40
30399;DHT22;17195;50.838;7.214;2022-08-21T10:18:42;23.90;97.40
30399;DHT22;17195;50.838;7.214;2022-08-21T10:23:48;24.20;96.20
30399;DHT22;17195;50.838;7.214;2022-08-21T10:27:19;24.20;96.10
30399;DHT22;17195;50.838;7.214;2022-08-21T10:29:50;24.30;96.60
30399;DHT22;17195;50.838;7.214;2022-08-21T10:32:34;24.40;95.80
30399;DHT22;17195;50.838;7.214;2022-08-21T10:35:29;24.50;94.90
30399;DHT22;17195;50.838;7.214;2022-08-21T10:54:35;25.20;91.80
30399;DHT22;17195;50.838;7.214;2022-08-21T10:57:06;25.40;91.60
30399;DHT22;17195;50.838;7.214;2022-08-21T11:00:14;25.70;91.20
30399;DHT22;17195;50.838;7.214;2022-08-21T11:02:45;25.50;90.40
30399;DHT22;17195;50.838;7.214;2022-08-21T11:05:17;25.70;89.80
30399;DHT22;17195;50.838;7.214;2022-08-21T11:07:54;25.80;88.70
30399;DHT22;17195;50.838;7.214;2022-08-21T11:10:32;26.00;88.10
30399;DHT22;17195;50.838;7.214;2022-08-21T11:13:03;26.00;88.20
30399;DHT22;17195;50.838;7.214;2022-08-21T11:18:47;26.10;85.90
30399;DHT22;17195;50.838;7.214;2022-08-21T11:21:42;26.20;85.40
30399;DHT22;17195;50.838;7.214;2022-08-21T11:24:17;26.30;85.80
30399;DHT22;17195;50.838;7.214;2022-08-21T11:26:49;26.40;82.70
30399;DHT22;17195;50.838;7.214;2022-08-21T11:29:26;26.30;81.70
30399;DHT22;17195;50.838;7.214;2022-08-21T11:40:26;26.60;79.80
30399;DHT22;17195;50.838;7.214;2022-08-21T11:43:32;26.60;79.20
30399;DHT22;17195;50.838;7.214;2022-08-21T11:46:14;26.70;78.40
30399;DHT22;17195;50.838;7.214;2022-08-21T11:54:48;27.30;77.10
30399;DHT22;17195;50.838;7.214;2022-08-21T11:57:29;27.40;76.40
30399;DHT22;17195;50.838;7.214;2022-08-21T12:02:34;27.70;74.10
30399;DHT22;17195;50.838;7.214;2022-08-21T12:05:07;27.70;73.80
30399;DHT22;17195;50.838;7.214;2022-08-21T12:10:07;27.80;72.40
30399;DHT22;17195;50.838;7.214;2022-08-21T12:12:36;27.90;72.50
30399;DHT22;17195;50.838;7.214;2022-08-21T12:17:53;27.60;71.60
30399;DHT22;17195;50.838;7.214;2022-08-21T12:26:16;27.80;71.50
30399;DHT22;17195;50.838;7.214;2022-08-21T12:28:43;27.80;69.90
30399;DHT22;17195;50.838;7.214;2022-08-21T12:31:25;27.80;68.40
30399;DHT22;17195;50.838;7.214;2022-08-21T12:33:58;28.00;67.70
30399;DHT22;17195;50.838;7.214;2022-08-21T12:36:35;28.20;67.50
30399;DHT22;17195;50.838;7.214;2022-08-21T12:39:12;28.40;65.50
30399;DHT22;17195;50.838;7.214;2022-08-21T12:41:48;28.40;65.60
30399;DHT22;17195;50.838;7.214;2022-08-21T12:44:18;28.70;65.60
30399;DHT22;17195;50.838;7.214;2022-08-21T12:46:50;28.80;65.40
30399;DHT22;17195;50.838;7.214;2022-08-21T12:49:37;28.80;65.20
30399;DHT22;17195;50.838;7.214;2022-08-21T12:52:35;28.90;65.70
30399;DHT22;17195;50.838;7.214;2022-08-21T12:55:02;28.90;65.10
30399;DHT22;17195;50.838;7.214;2022-08-21T12:57:29;28.70;63.90
30399;DHT22;17195;50.838;7.214;2022-08-21T13:00:01;28.60;63.40
30399;DHT22;17195;50.838;7.214;2022-08-21T13:02:36;28.90;63.10
30399;DHT22;17195;50.838;7.214;2022-08-21T13:05:06;29.10;63.40
30399;DHT22;17195;50.838;7.214;2022-08-21T13:07:34;29.30;62.20
30399;DHT22;17195;50.838;7.214;2022-08-21T13:10:19;29.30;62.40
30399;DHT22;17195;50.838;7.214;2022-08-21T13:12:46;29.50;61.90
30399;DHT22;17195;50.838;7.214;2022-08-21T13:15:12;29.20;62.00
30399;DHT22;17195;50.838;7.214;2022-08-21T13:17:41;29.00;61.70
30399;DHT22;17195;50.838;7.214;2022-08-21T13:20:19;28.80;62.90
30399;DHT22;17195;50.838;7.214;2022-08-21T13:22:46;28.70;62.00
30399;DHT22;17195;50.838;7.214;2022-08-21T13:25:14;28.70;61.60
30399;DHT22;17195;50.838;7.214;2022-08-21T13:27:41;28.80;61.30
30399;DHT22;17195;50.838;7.214;2022-08-21T13:30:27;28.80;61.80
30399;DHT22;17195;50.838;7.214;2022-08-21T13:32:58;28.80;60.70
30399;DHT22;17195;50.838;7.214;2022-08-21T13:35:31;28.90;60.60
30399;DHT22;17195;50.838;7.214;2022-08-21T13:38:01;29.00;60.40
30399;DHT22;17195;50.838;7.214;2022-08-21T13:40:38;28.90;60.80
30399;DHT22;17195;50.838;7.214;2022-08-21T13:43:14;29.00;59.90
30399;DHT22;17195;50.838;7.214;2022-08-21T13:45:44;29.00;59.70
30399;DHT22;17195;50.838;7.214;2022-08-21T13:48:10;29.10;59.60
30399;DHT22;17195;50.838;7.214;2022-08-21T13:50:38;29.50;59.70
30399;DHT22;17195;50.838;7.214;2022-08-21T13:53:06;29.80;58.90
30399;DHT22;17195;50.838;7.214;2022-08-21T13:55:42;30.10;58.40
30399;DHT22;17195;50.838;7.214;2022-08-21T13:58:09;30.20;57.30
30399;DHT22;17195;50.838;7.214;2022-08-21T14:00:45;30.40;57.30
30399;DHT22;17195;50.838;7.214;2022-08-21T14:03:15;30.70;57.10
30399;DHT22;17195;50.838;7.214;2022-08-21T14:05:48;30.80;56.40
30399;DHT22;17195;50.838;7.214;2022-08-21T14:10:54;29.70;57.30
30399;DHT22;17195;50.838;7.214;2022-08-21T14:13:44;29.30;57.80
30399;DHT22;17195;50.838;7.214;2022-08-21T14:16:20;29.30;57.60
30399;DHT22;17195;50.838;7.214;2022-08-21T14:21:24;29.70;56.40
30399;DHT22;17195;50.838;7.214;2022-08-21T14:24:14;30.00;56.50
30399;DHT22;17195;50.838;7.214;2022-08-21T14:26:52;30.40;56.20
30399;DHT22;17195;50.838;7.214;2022-08-21T14:29:20;30.70;55.40
30399;DHT22;17195;50.838;7.214;2022-08-21T14:31:58;31.00;54.50
30399;DHT22;17195;50.838;7.214;2022-08-21T14:34:26;31.20;54.40
30399;DHT22;17195;50.838;7.214;2022-08-21T14:36:53;31.20;53.60
30399;DHT22;17195;50.838;7.214;2022-08-21T14:39:20;31.10;52.90
30399;DHT22;17195;50.838;7.214;2022-08-21T14:41:46;30.80;53.60
30399;DHT22;17195;50.838;7.214;2022-08-21T14:44:14;30.80;53.60
30399;DHT22;17195;50.838;7.214;2022-08-21T14:46:40;30.70;53.70
30399;DHT22;17195;50.838;7.214;2022-08-21T14:49:06;30.70;54.00
30399;DHT22;17195;50.838;7.214;2022-08-21T14:51:32;30.50;54.50
30399;DHT22;17195;50.838;7.214;2022-08-21T14:53:57;30.40;54.90
30399;DHT22;17195;50.838;7.214;2022-08-21T14:56:23;30.00;55.00
30399;DHT22;17195;50.838;7.214;2022-08-21T14:58:51;29.60;56.20
30399;DHT22;17195;50.838;7.214;2022-08-21T15:01:19;29.40;56.40
30399;DHT22;17195;50.838;7.214;2022-08-21T15:03:46;29.40;56.40
30399;DHT22;17195;50.838;7.214;2022-08-21T15:06:15;29.40;56.60
30399;DHT22;17195;50.838;7.214;2022-08-21T15:08:41;29.30;56.30
30399;DHT22;17195;50.838;7.214;2022-08-21T15:11:09;29.60;56.90
30399;DHT22;17195;50.838;7.214;2022-08-21T15:13:36;29.50;56.80
30399;DHT22;17195;50.838;7.214;2022-08-21T15:16:02;29.50;57.00
30399;DHT22;17195;50.838;7.214;2022-08-21T15:18:29;29.50;57.30
30399;DHT22;17195;50.838;7.214;2022-08-21T15:20:55;29.60;57.30
30399;DHT22;17195;50.838;7.214;2022-08-21T15:23:21;29.80;56.70
30399;DHT22;17195;50.838;7.214;2022-08-21T15:25:48;29.60;56.90
30399;DHT22;17195;50.838;7.214;2022-08-21T15:28:14;29.90;56.80
30399;DHT22;17195;50.838;7.214;2022-08-21T15:30:42;30.40;56.90
30399;DHT22;17195;50.838;7.214;2022-08-21T15:33:08;30.60;55.60
30399;DHT22;17195;50.838;7.214;2022-08-21T15:35:34;31.10;55.60
30399;DHT22;17195;50.838;7.214;2022-08-21T15:38:00;31.50;54.70
30399;DHT22;17195;50.838;7.214;2022-08-21T15:40:26;31.50;54.70
30399;DHT22;17195;50.838;7.214;2022-08-21T15:42:57;31.60;54.40
30399;DHT22;17195;50.838;7.214;2022-08-21T15:45:24;31.00;54.20
30399;DHT22;17195;50.838;7.214;2022-08-21T15:47:50;30.70;55.00
30399;DHT22;17195;50.838;7.214;2022-08-21T15:50:17;30.00;56.50
30399;DHT22;17195;50.838;7.214;2022-08-21T15:52:43;29.80;56.70
30399;DHT22;17195;50.838;7.214;2022-08-21T15:55:09;29.50;56.80
30399;DHT22;17195;50.838;7.214;2022-08-21T15:57:36;29.40;57.40
30399;DHT22;17195;50.838;7.214;2022-08-21T16:00:15;29.20;57.40
30399;DHT22;17195;50.838;7.214;2022-08-21T16:02:47;28.60;58.20
30399;DHT22;17195;50.838;7.214;2022-08-21T16:05:15;28.40;59.10
30399;DHT22;17195;50.838;7.214;2022-08-21T16:07:43;28.30;59.20
30399;DHT22;17195;50.838;7.214;2022-08-21T16:10:09;28.10;59.20
30399;DHT22;17195;50.838;7.214;2022-08-21T16:12:39;27.90;59.60
30399;DHT22;17195;50.838;7.214;2022-08-21T16:15:08;27.70;59.90
30399;DHT22;17195;50.838;7.214;2022-08-21T16:17:36;27.60;60.40
30399;DHT22;17195;50.838;7.214;2022-08-21T16:20:06;27.60;60.40
30399;DHT22;17195;50.838;7.214;2022-08-21T16:22:32;27.90;59.70
30399;DHT22;17195;50.838;7.214;2022-08-21T16:24:57;29.60;57.80
30399;DHT22;17195;50.838;7.214;2022-08-21T16:27:23;31.20;54.90
30399;DHT22;17195;50.838;7.214;2022-08-21T16:29:49;31.00;54.20
30399;DHT22;17195;50.838;7.214;2022-08-21T16:32:15;31.70;52.60
30399;DHT22;17195;50.838;7.214;2022-08-21T16:34:45;32.70;51.50
30399;DHT22;17195;50.838;7.214;2022-08-21T16:37:12;31.90;51.20
30399;DHT22;17195;50.838;7.214;2022-08-21T16:39:37;31.40;51.80
30399;DHT22;17195;50.838;7.214;2022-08-21T16:42:03;31.20;52.10
30399;DHT22;17195;50.838;7.214;2022-08-21T16:44:29;31.20;51.60
30399;DHT22;17195;50.838;7.214;2022-08-21T16:46:55;30.80;52.30
30399;DHT22;17195;50.838;7.214;2022-08-21T16:49:20;30.50;52.50
30399;DHT22;17195;50.838;7.214;2022-08-21T16:51:46;30.00;53.20
30399;DHT22;17195;50.838;7.214;2022-08-21T16:54:12;29.30;54.20
30399;DHT22;17195;50.838;7.214;2022-08-21T16:56:39;29.00;55.10